Time;durP1;ratioP1;P1;durP2;ratioP2;P2;SDS_P1;SDS_P2;PMS_P1;PMS_P2;Temp;Humidity;BMP_temperature;BMP_pressure;BME280_temperature;BME280_humidity;BME280_pressure;Samples;Min_cycle;Max_cycle;Signal;HPM_P1;HPM_P2
2022/06/15 00:01:41;;;;;;;21.65;11.93;;;10.40;99.90;;;;;;5049787;28;20393;-73
2022/06/15 00:04:09;;;;;;;21.23;12.05;;;10.30;99.90;;;;;;5049219;28;20100;-73
2022/06/15 00:06:54;;;;;;;18.35;10.63;;;10.20;99.90;;;;;;5054406;28;20036;-74
2022/06/15 00:09:20;;;;;;;12.75;8.75;;;10.00;99.90;;;;;;5054244;28;20021;-74
2022/06/15 00:11:48;;;;;;;13.18;8.90;;;10.10;99.90;;;;;;5054191;28;20369;-74
2022/06/15 00:14:24;;;;;;;14.45;9.60;;;10.10;99.90;;;;;;5053187;28;20127;-73
2022/06/15 00:16:55;;;;;;;13.18;8.93;;;10.10;99.90;;;;;;5049358;28;20033;-74
2022/06/15 00:19:33;;;;;;;16.02;9.10;;;10.20;99.90;;;;;;5039892;28;20033;-73
2022/06/15 00:22:04;;;;;;;14.93;9.18;;;10.20;99.90;;;;;;5051121;28;20025;-74
2022/06/15 00:24:33;;;;;;;14.63;10.40;;;10.20;99.90;;;;;;5040019;28;20013;-74
2022/06/15 00:27:05;;;;;;;16.60;10.57;;;10.20;99.90;;;;;;5054126;28;20054;-73
2022/06/15 00:29:42;;;;;;;16.83;10.43;;;10.20;99.90;;;;;;5053897;28;20021;-74
2022/06/15 00:32:16;;;;;;;18.67;9.98;;;10.20;99.90;;;;;;5053853;28;20055;-74
2022/06/15 00:34:51;;;;;;;21.52;10.30;;;10.10;99.90;;;;;;5054275;28;20098;-74
2022/06/15 00:37:28;;;;;;;17.08;9.95;;;10.00;99.90;;;;;;5054134;28;20043;-73
2022/06/15 00:40:09;;;;;;;13.10;9.55;;;10.00;99.90;;;;;;5053578;28;20029;-73
2022/06/15 00:42:50;;;;;;;14.27;9.50;;;10.00;99.90;;;;;;5038483;28;20080;-73
2022/06/15 00:45:18;;;;;;;15.45;9.15;;;10.00;99.90;;;;;;5049573;28;20017;-73
2022/06/15 00:47:53;;;;;;;17.65;9.20;;;10.00;99.90;;;;;;5053613;28;20108;-73
2022/06/15 00:50:25;;;;;;;13.40;8.77;;;10.00;99.90;;;;;;5053480;28;20032;-73
2022/06/15 00:53:07;;;;;;;13.45;8.60;;;9.90;99.90;;;;;;5041192;28;20025;-73
2022/06/15 00:55:37;;;;;;;12.98;8.25;;;10.00;99.90;;;;;;5053711;28;20090;-74
2022/06/15 00:58:23;;;;;;;14.07;9.03;;;10.10;99.90;;;;;;5053700;28;20548;-74
2022/06/15 01:00:57;;;;;;;19.35;9.60;;;10.20;99.90;;;;;;5053027;28;20258;-73
2022/06/15 01:03:25;;;;;;;15.43;9.57;;;10.10;99.90;;;;;;5053369;28;20060;-74
2022/06/15 01:06:22;;;;;;;16.08;9.80;;;10.10;99.90;;;;;;5053012;28;20028;-74
2022/06/15 01:09:28;;;;;;;13.98;9.20;;;10.00;99.90;;;;;;5042366;28;20048;-74
2022/06/15 01:12:24;;;;;;;16.30;9.20;;;9.90;99.90;;;;;;4990309;28;20118;-74
2022/06/15 01:15:11;;;;;;;16.83;9.10;;;9.90;99.90;;;;;;4977340;28;20058;-73
2022/06/15 01:18:10;;;;;;;14.52;9.70;;;9.80;99.90;;;;;;4991181;28;20044;-74
2022/06/15 01:21:20;;;;;;;16.75;9.40;;;9.80;99.90;;;;;;4991195;28;20100;-74
2022/06/15 01:24:16;;;;;;;15.32;9.48;;;9.80;99.90;;;;;;5024999;28;20044;-74
2022/06/15 01:27:47;;;;;;;13.88;9.07;;;9.80;99.90;;;;;;5038070;28;20100;-74
2022/06/15 01:30:41;;;;;;;15.00;8.93;;;9.70;99.90;;;;;;4968699;28;20042;-74
2022/06/15 01:33:45;;;;;;;14.85;9.73;;;9.80;99.90;;;;;;5052806;28;20056;-74
2022/06/15 01:36:44;;;;;;;17.15;9.35;;;9.80;99.90;;;;;;5052847;28;20029;-74
2022/06/15 01:39:20;;;;;;;14.25;9.15;;;9.70;99.90;;;;;;5042423;28;20032;-74
2022/06/15 01:42:11;;;;;;;13.90;9.35;;;9.60;99.90;;;;;;5042842;28;20118;-73
2022/06/15 01:44:58;;;;;;;14.25;9.48;;;9.50;99.90;;;;;;5039683;28;20564;-74
2022/06/15 01:47:47;;;;;;;15.32;8.70;;;9.50;99.90;;;;;;5040161;28;20106;-74
2022/06/15 01:50:46;;;;;;;14.85;9.35;;;9.40;99.90;;;;;;5052350;28;20029;-74
2022/06/15 01:53:22;;;;;;;15.70;9.23;;;9.30;99.90;;;;;;5038581;28;20051;-74
2022/06/15 01:56:12;;;;;;;16.05;9.38;;;9.40;99.90;;;;;;5039036;28;20246;-74
2022/06/15 01:58:40;;;;;;;;;;;9.40;99.90;;;;;;5052843;28;20109;-74
2022/06/15 02:01:45;;;;;;;14.07;9.18;;;9.40;99.90;;;;;;5052101;28;19909;-74
2022/06/15 02:04:45;;;;;;;15.55;9.40;;;9.30;99.90;;;;;;5052272;28;20025;-74
2022/06/15 02:07:22;;;;;;;16.30;9.65;;;9.40;99.90;;;;;;5049187;28;20035;-74
2022/06/15 02:10:03;;;;;;;16.25;10.02;;;9.40;99.90;;;;;;5052210;28;20020;-74
2022/06/15 02:12:38;;;;;;;16.88;10.15;;;9.40;99.90;;;;;;5051910;28;20017;-74
2022/06/15 02:15:10;;;;;;;15.10;9.82;;;9.40;99.90;;;;;;5032255;28;20463;-74
2022/06/15 02:17:44;;;;;;;14.27;9.35;;;9.40;99.90;;;;;;5032209;28;20021;-74
2022/06/15 02:20:33;;;;;;;16.02;9.82;;;9.40;99.90;;;;;;5032220;28;20028;-74
2022/06/15 02:23:16;;;;;;;13.65;8.43;;;9.40;99.90;;;;;;5022981;28;20021;-74
2022/06/15 02:25:56;;;;;;;13.55;9.20;;;9.60;99.90;;;;;;5032230;28;20033;-74
2022/06/15 02:28:32;;;;;;;;;;;9.60;99.90;;;;;;5033007;28;20087;-74
2022/06/15 02:31:00;;;;;;;13.48;8.52;;;9.50;99.90;;;;;;5025373;28;20008;-74
2022/06/15 02:33:37;;;;;;;12.35;8.77;;;9.50;99.90;;;;;;5030432;28;20022;-74
2022/06/15 02:36:08;;;;;;;16.58;9.82;;;9.50;99.90;;;;;;5032013;28;20017;-74
2022/06/15 02:38:42;;;;;;;13.70;9.00;;;9.50;99.90;;;;;;5032134;28;20091;-75
2022/06/15 02:41:08;;;;;;;14.98;8.77;;;9.40;99.90;;;;;;5032283;28;20059;-74
2022/06/15 02:43:41;;;;;;;17.52;10.02;;;9.40;99.90;;;;;;5031955;28;20049;-74
2022/06/15 02:46:09;;;;;;;16.35;9.25;;;9.50;99.90;;;;;;5031768;28;20026;-74
2022/06/15 02:48:44;;;;;;;15.20;9.27;;;9.40;99.90;;;;;;5021586;28;20018;-74
2022/06/15 02:51:33;;;;;;;14.60;9.57;;;9.40;99.90;;;;;;5031776;28;20033;-74
2022/06/15 02:54:18;;;;;;;17.27;10.15;;;9.50;99.90;;;;;;5031825;28;20049;-74
2022/06/15 02:56:47;;;;;;;13.75;9.90;;;9.50;99.90;;;;;;5025708;28;20025;-74
2022/06/15 02:59:13;;;;;;;14.48;10.35;;;9.50;99.90;;;;;;5031858;28;20044;-74
2022/06/15 03:01:41;;;;;;;13.82;9.32;;;9.50;99.90;;;;;;5031721;28;20029;-74
2022/06/15 03:04:10;;;;;;;16.38;10.50;;;9.60;99.90;;;;;;5031504;28;20028;-74
2022/06/15 03:06:41;;;;;;;15.20;9.93;;;9.50;99.90;;;;;;5031762;28;20081;-74
2022/06/15 03:09:19;;;;;;;18.17;11.15;;;9.60;99.90;;;;;;5031714;28;20032;-74
2022/06/15 03:11:45;;;;;;;15.93;9.38;;;9.60;99.90;;;;;;5031963;28;20072;-74
2022/06/15 03:24:28;;;;;;;13.00;8.93;;;9.60;99.90;;;;;;5053080;28;20075;-74
2022/06/15 03:27:02;;;;;;;17.90;9.80;;;9.60;99.90;;;;;;5038477;28;20025;-74
2022/06/15 03:30:06;;;;;;;14.07;10.27;;;9.70;99.90;;;;;;5049133;28;20036;-74
2022/06/15 03:32:32;;;;;;;14.30;10.18;;;9.60;99.90;;;;;;5009392;28;20069;-74
2022/06/15 03:35:11;;;;;;;17.05;10.60;;;9.70;99.90;;;;;;5045241;28;20068;-74
2022/06/15 03:37:42;;;;;;;16.27;9.82;;;9.70;99.90;;;;;;5054979;28;20400;-74
2022/06/15 03:40:14;;;;;;;17.63;10.85;;;9.70;99.90;;;;;;5054978;28;20117;-74
2022/06/15 03:42:40;;;;;;;15.68;10.27;;;9.80;99.90;;;;;;5055037;28;20025;-74
2022/06/15 03:45:14;;;;;;;19.42;12.20;;;9.80;99.90;;;;;;5055053;28;20040;-74
2022/06/15 03:47:45;;;;;;;19.55;11.10;;;9.80;99.90;;;;;;5055002;28;20025;-74
2022/06/15 03:50:17;;;;;;;18.15;11.27;;;9.90;99.90;;;;;;5054789;28;20065;-74
2022/06/15 03:52:49;;;;;;;18.27;11.82;;;10.00;99.90;;;;;;5053572;28;20112;-74
2022/06/15 03:55:30;;;;;;;20.05;12.23;;;10.10;99.90;;;;;;5052168;28;20030;-74
2022/06/15 03:58:02;;;;;;;16.67;11.20;;;10.10;99.90;;;;;;5054573;28;20025;-74
2022/06/15 04:00:30;;;;;;;20.20;12.23;;;10.20;99.90;;;;;;5054511;28;20402;-74
2022/06/15 04:02:59;;;;;;;20.02;11.48;;;10.30;99.90;;;;;;5054403;28;20029;-74
2022/06/15 04:05:31;;;;;;;19.05;12.05;;;11.00;99.90;;;;;;5054530;28;20024;-74
2022/06/15 04:08:35;;;;;;;17.88;12.15;;;12.00;99.90;;;;;;5054418;28;20021;-75
2022/06/15 04:14:01;;;;;;;15.73;10.30;;;13.60;1.00;;;;;;5043721;28;20435;-74
2022/06/15 04:16:38;;;;;;;18.40;10.73;;;14.20;1.00;;;;;;5036559;28;20028;-74
2022/06/15 04:19:08;;;;;;;15.07;10.30;;;14.80;1.00;;;;;;5043291;28;20045;-75
2022/06/15 04:21:37;;;;;;;14.95;9.98;;;15.60;1.00;;;;;;5043182;28;20025;-74
2022/06/15 04:24:26;;;;;;;13.88;9.07;;;16.00;99.90;;;;;;5046876;28;20031;-74
2022/06/15 04:26:55;;;;;;;19.77;10.57;;;15.90;99.90;;;;;;5043252;28;20512;-74
2022/06/15 04:29:28;;;;;;;13.80;8.75;;;16.10;99.90;;;;;;5048141;28;20055;-75
2022/06/15 04:31:59;;;;;;;14.57;9.25;;;17.00;99.90;;;;;;5039791;28;20163;-75
2022/06/15 04:34:30;;;;;;;13.70;8.40;;;18.40;99.90;;;;;;5039301;28;20056;-75
2022/06/15 04:37:14;;;;;;;12.43;8.32;;;18.80;99.90;;;;;;5037171;28;20029;-74
2022/06/15 04:39:42;;;;;;;13.35;8.15;;;19.20;99.90;;;;;;5052122;28;20048;-75
2022/06/15 04:42:17;;;;;;;13.13;8.30;;;19.80;99.90;;;;;;5046012;28;20037;-75
2022/06/15 04:45:14;;;;;;;11.93;8.52;;;20.20;99.90;;;;;;5042636;28;20032;-75
2022/06/15 04:47:50;;;;;;;11.18;8.13;;;20.00;99.90;;;;;;4991735;28;20064;-75
2022/06/15 04:50:16;;;;;;;13.13;8.10;;;22.10;99.90;;;;;;5033623;28;20037;-75
2022/06/15 04:52:45;;;;;;;11.75;7.68;;;22.80;99.90;;;;;;5039506;28;20029;-75
2022/06/15 04:55:16;;;;;;;10.50;7.50;;;23.00;99.90;;;;;;5053453;28;20059;-74
2022/06/15 04:58:00;;;;;;;10.02;6.97;;;23.60;99.90;;;;;;5053455;28;20368;-75
2022/06/15 05:00:40;;;;;;;11.52;7.78;;;23.50;99.90;;;;;;5053403;28;20025;-75
2022/06/15 05:03:12;;;;;;;11.40;7.40;;;24.90;99.90;;;;;;5052070;28;20029;-75
2022/06/15 05:05:49;;;;;;;10.48;7.28;;;25.10;99.90;;;;;;5045932;28;20029;-75
2022/06/15 05:08:18;;;;;;;10.75;6.72;;;23.80;99.90;;;;;;5047315;28;20044;-75
2022/06/15 05:10:50;;;;;;;9.50;6.63;;;25.20;99.90;;;;;;5033353;28;20036;-75
2022/06/15 05:28:52;;;;;;;9.32;6.65;;;28.00;99.90;;;;;;5051616;28;20035;-75
2022/06/15 05:31:34;;;;;;;10.50;6.30;;;27.40;99.90;;;;;;5044148;28;20037;-75
2022/06/15 05:34:08;;;;;;;10.00;6.20;;;28.50;99.90;;;;;;5049968;28;20095;-75
2022/06/15 05:36:37;;;;;;;8.45;6.15;;;28.10;99.90;;;;;;5052675;28;20032;-75
2022/06/15 05:39:18;;;;;;;10.70;6.18;;;27.40;99.90;;;;;;5038897;28;20061;-75
2022/06/15 05:42:03;;;;;;;8.63;5.97;;;28.70;99.90;;;;;;5038399;28;20120;-75
2022/06/15 05:44:47;;;;;;;8.50;6.28;;;30.10;99.90;;;;;;5041432;28;20020;-75
2022/06/15 05:47:22;;;;;;;7.60;5.65;;;30.50;99.90;;;;;;5052843;28;20087;-75
2022/06/15 05:50:12;;;;;;;9.30;6.10;;;32.40;99.90;;;;;;5046379;28;20132;-75
2022/06/15 05:52:36;;;;;;;9.23;5.50;;;32.40;99.90;;;;;;5049358;28;20641;-75
2022/06/15 05:55:14;;;;;;;6.50;5.28;;;32.00;99.90;;;;;;5052031;28;20262;-75
2022/06/15 05:57:43;;;;;;;7.53;5.20;;;31.50;99.90;;;;;;5041816;28;20037;-75
2022/06/15 06:00:25;;;;;;;7.07;5.13;;;32.10;99.90;;;;;;5032326;28;20025;-75
2022/06/15 06:03:16;;;;;;;6.82;5.65;;;31.40;99.90;;;;;;5032669;28;20095;-75
2022/06/15 06:06:00;;;;;;;6.93;5.63;;;31.30;99.90;;;;;;5022602;28;20030;-75
2022/06/15 06:08:28;;;;;;;8.20;5.72;;;31.80;99.90;;;;;;5039220;28;20029;-75
2022/06/15 06:11:06;;;;;;;6.85;5.35;;;31.50;99.90;;;;;;5034647;28;20044;-75
2022/06/15 06:13:42;;;;;;;6.80;5.18;;;31.90;99.90;;;;;;5048644;28;20040;-75
2022/06/15 06:16:11;;;;;;;6.05;4.82;;;33.60;99.90;;;;;;5052060;28;20037;-75
2022/06/15 06:18:55;;;;;;;7.00;5.10;;;33.30;99.90;;;;;;5052141;28;20020;-75
2022/06/15 06:21:23;;;;;;;7.22;4.80;;;35.20;99.90;;;;;;5047099;28;20512;-75
2022/06/15 06:23:51;;;;;;;10.87;5.80;;;35.40;99.90;;;;;;5051933;28;20481;-74
2022/06/15 06:26:25;;;;;;;6.72;4.97;;;35.30;99.90;;;;;;5052014;28;20048;-74
2022/06/15 06:29:06;;;;;;;6.35;4.90;;;36.80;99.90;;;;;;5052004;28;20115;-75
2022/06/15 06:31:40;;;;;;;6.72;4.72;;;35.40;99.90;;;;;;5046802;28;20068;-75
2022/06/15 06:34:13;;;;;;;7.20;4.32;;;35.30;99.90;;;;;;5046378;28;20025;-75
2022/06/15 06:36:56;;;;;;;6.50;4.65;;;36.20;99.90;;;;;;5046610;28;20540;-75
2022/06/15 06:39:28;;;;;;;10.88;5.00;;;36.10;99.90;;;;;;5031221;28;20029;-75
2022/06/15 06:42:26;;;;;;;6.65;4.95;;;36.30;99.90;;;;;;5031048;28;20053;-75
2022/06/15 06:45:00;;;;;;;5.30;4.25;;;36.20;99.90;;;;;;4977640;28;20042;-75
2022/06/15 06:47:37;;;;;;;6.88;4.22;;;36.70;99.90;;;;;;5037952;28;20502;-75
2022/06/15 06:50:06;;;;;;;5.55;4.05;;;36.60;99.90;;;;;;5038346;28;20422;-75
2022/06/15 06:52:38;;;;;;;6.93;4.53;;;38.20;99.90;;;;;;5050114;28;20039;-75
2022/06/15 06:55:12;;;;;;;4.88;4.13;;;39.10;99.90;;;;;;5044210;28;20757;-76
2022/06/15 06:57:46;;;;;;;7.28;4.43;;;37.10;99.90;;;;;;5036299;28;20043;-75
2022/06/15 07:00:24;;;;;;;7.45;4.10;;;36.60;99.90;;;;;;5030945;28;20579;-75
2022/06/15 07:03:01;;;;;;;5.80;3.88;;;34.70;99.90;;;;;;5030977;28;20028;-75
2022/06/15 07:05:34;;;;;;;7.47;3.85;;;35.60;99.90;;;;;;5035117;28;20044;-75
2022/06/15 07:08:00;;;;;;;5.35;4.22;;;33.60;99.90;;;;;;5040198;28;20037;-75
2022/06/15 07:10:29;;;;;;;10.35;4.90;;;31.40;99.90;;;;;;5033352;28;20033;-74
2022/06/15 07:12:54;;;;;;;7.10;4.78;;;32.80;99.90;;;;;;5035186;28;20060;-75
2022/06/15 07:15:36;;;;;;;7.45;4.10;;;31.10;99.90;;;;;;5049339;28;20202;-75
2022/06/15 07:18:11;;;;;;;7.15;4.30;;;29.30;99.90;;;;;;5054763;28;20173;-75
2022/06/15 07:20:45;;;;;;;6.03;3.83;;;29.10;99.90;;;;;;5054549;28;20024;-75
2022/06/15 07:23:14;;;;;;;6.82;4.18;;;30.00;99.90;;;;;;5040441;28;20021;-75
2022/06/15 07:25:42;;;;;;;7.65;4.65;;;33.10;99.90;;;;;;5034454;28;20380;-75
2022/06/15 07:28:15;;;;;;;5.40;3.63;;;36.80;99.90;;;;;;5034558;28;20014;-75
2022/06/15 07:30:46;;;;;;;5.45;4.28;;;38.70;99.90;;;;;;5039606;28;21594;-75
2022/06/15 07:33:19;;;;;;;7.68;4.88;;;37.60;99.90;;;;;;5046340;28;20107;-75
2022/06/15 07:38:45;;;;;;;8.18;4.00;;;39.20;99.90;;;;;;5022860;28;20072;-75
2022/06/15 07:41:26;;;;;;;5.80;4.00;;;36.50;99.90;;;;;;5047990;28;20029;-75
2022/06/15 07:43:56;;;;;;;7.53;3.95;;;35.80;99.90;;;;;;5047412;28;20021;-75
2022/06/15 07:46:35;;;;;;;5.70;3.90;;;36.70;99.90;;;;;;5054143;28;20056;-75
2022/06/15 07:52:16;;;;;;;7.55;4.15;;;36.50;99.90;;;;;;5043245;28;20118;-75
2022/06/15 07:54:57;;;;;;;5.30;3.17;;;37.50;99.90;;;;;;5040358;28;20037;-75
2022/06/15 07:57:26;;;;;;;6.10;3.50;;;38.40;99.90;;;;;;5033620;28;20543;-76
2022/06/15 08:00:01;;;;;;;6.35;4.18;;;38.40;99.90;;;;;;5033421;28;20427;-75
2022/06/15 08:02:36;;;;;;;7.22;3.85;;;36.40;99.90;;;;;;5033756;28;20468;-75
2022/06/15 08:05:35;;;;;;;5.95;3.72;;;37.50;99.90;;;;;;5039401;28;20492;-75
2022/06/15 08:08:06;;;;;;;5.80;3.63;;;37.60;99.90;;;;;;5045335;28;20143;-76
2022/06/15 08:10:34;;;;;;;6.78;3.85;;;38.30;99.90;;;;;;5038344;28;20021;-75
2022/06/15 08:13:09;;;;;;;6.22;3.28;;;38.50;99.90;;;;;;5033594;28;20487;-76
2022/06/15 08:23:50;;;;;;;5.18;3.42;;;37.10;99.90;;;;;;5312468;23;20458;-73
2022/06/15 08:26:18;;;;;;;5.97;3.33;;;36.80;99.90;;;;;;4972934;28;20081;-73
2022/06/15 08:28:48;;;;;;;6.75;3.10;;;36.60;99.90;;;;;;4973985;28;20054;-73
2022/06/15 08:31:14;;;;;;;6.05;3.30;;;37.80;99.90;;;;;;4970639;28;20062;-73
2022/06/15 08:33:40;;;;;;;4.97;2.85;;;37.10;99.90;;;;;;4975248;28;20484;-75
2022/06/15 08:36:07;;;;;;;5.82;3.10;;;31.70;99.90;;;;;;4975331;28;20037;-75
2022/06/15 08:38:33;;;;;;;3.75;2.80;;;29.50;99.90;;;;;;4975515;28;20466;-75
2022/06/15 08:41:30;;;;;;;5.82;2.88;;;32.50;99.90;;;;;;4965935;28;20027;-75
2022/06/15 08:44:42;;;;;;;4.57;2.00;;;33.10;99.90;;;;;;4955504;28;20035;-75
2022/06/15 08:47:35;;;;;;;4.07;2.50;;;36.60;99.90;;;;;;4968532;28;20666;-75
2022/06/15 08:50:34;;;;;;;7.25;2.78;;;35.00;99.90;;;;;;4968886;28;20058;-75
2022/06/15 08:53:03;;;;;;;7.88;3.03;;;34.90;99.90;;;;;;4955710;29;20023;-75
2022/06/15 08:55:49;;;;;;;7.23;2.83;;;33.60;99.90;;;;;;4955556;28;20019;-75
2022/06/15 08:58:31;;;;;;;5.45;2.40;;;32.70;99.90;;;;;;4966267;28;20525;-75
2022/06/15 09:01:06;;;;;;;3.72;2.33;;;33.20;99.90;;;;;;4974587;28;20635;-75
2022/06/15 09:03:44;;;;;;;5.10;2.58;;;28.50;99.90;;;;;;4974835;28;20022;-75
2022/06/15 09:06:28;;;;;;;5.15;2.35;;;30.20;99.90;;;;;;4961279;28;20019;-75
2022/06/15 09:09:05;;;;;;;2.65;2.00;;;35.20;99.90;;;;;;4970495;28;20122;-75
2022/06/15 09:11:38;;;;;;;4.32;2.60;;;36.40;99.90;;;;;;4974646;28;20023;-75
2022/06/15 09:14:41;;;;;;;5.70;2.13;;;37.80;99.90;;;;;;4974477;28;20031;-75
2022/06/15 09:17:18;;;;;;;5.97;2.70;;;37.90;99.90;;;;;;4955193;28;20042;-75
2022/06/15 09:19:50;;;;;;;4.95;2.75;;;39.00;99.90;;;;;;4955309;28;20035;-75
2022/06/15 09:22:21;;;;;;;3.83;2.08;;;37.80;99.90;;;;;;4980610;28;20019;-75
2022/06/15 09:24:49;;;;;;;6.53;2.45;;;36.30;99.90;;;;;;4973508;28;20046;-75
2022/06/15 09:27:29;;;;;;;3.47;2.22;;;38.70;99.90;;;;;;4960180;28;20063;-75
2022/06/15 09:30:07;;;;;;;4.68;2.65;;;35.00;99.90;;;;;;4955162;28;20035;-76
2022/06/15 09:32:39;;;;;;;2.88;2.10;;;37.90;99.90;;;;;;4966069;28;20486;-75
2022/06/15 09:35:05;;;;;;;4.55;2.40;;;38.90;99.90;;;;;;4972407;28;20077;-75
2022/06/15 09:37:34;;;;;;;3.83;2.58;;;36.70;99.90;;;;;;4965527;28;20035;-75
2022/06/15 09:40:02;;;;;;;4.57;2.40;;;38.90;99.90;;;;;;4962798;28;20023;-75
2022/06/15 09:42:48;;;;;;;3.13;2.35;;;34.70;99.90;;;;;;4961522;28;20498;-75
2022/06/15 09:45:35;;;;;;;4.72;2.30;;;36.60;99.90;;;;;;4969153;28;20038;-75
2022/06/15 09:48:22;;;;;;;5.68;2.40;;;32.20;99.90;;;;;;4958328;28;20022;-75
2022/06/15 09:51:16;;;;;;;5.10;2.67;;;32.70;99.90;;;;;;4973998;28;20030;-75
2022/06/15 09:54:11;;;;;;;4.57;2.50;;;31.20;99.90;;;;;;4973974;28;20150;-75
2022/06/15 09:56:37;;;;;;;5.35;2.33;;;34.00;99.90;;;;;;4971707;28;20038;-75
2022/06/15 09:59:10;;;;;;;2.75;2.20;;;33.00;99.90;;;;;;4973847;28;20019;-75
2022/06/15 10:01:42;;;;;;;3.60;2.67;;;34.30;99.90;;;;;;4960925;28;20093;-75
2022/06/15 10:04:23;;;;;;;5.05;3.03;;;36.80;99.90;;;;;;4954549;29;20023;-75
2022/06/15 10:06:57;;;;;;;4.38;2.60;;;34.00;99.90;;;;;;4957269;28;20019;-75
2022/06/15 10:09:30;;;;;;;2.85;2.17;;;36.90;99.90;;;;;;4959641;28;20038;-75
2022/06/15 10:14:48;;;;;;;2.75;2.30;;;35.30;99.90;;;;;;4963181;28;20118;-75
2022/06/15 10:17:30;;;;;;;3.30;2.17;;;30.90;99.90;;;;;;4968259;28;20039;-75
2022/06/15 10:19:57;;;;;;;2.88;2.20;;;31.50;99.90;;;;;;4954733;28;20455;-74
2022/06/15 10:22:33;;;;;;;3.40;2.55;;;29.90;99.90;;;;;;4956771;28;20039;-75
2022/06/15 10:25:03;;;;;;;4.05;2.55;;;33.20;99.90;;;;;;4972530;28;20055;-75
2022/06/15 10:27:35;;;;;;;5.38;2.70;;;30.90;99.90;;;;;;4973401;28;20121;-75
2022/06/15 10:30:07;;;;;;;4.20;2.25;;;31.30;99.90;;;;;;4973452;28;20027;-75
2022/06/15 10:32:41;;;;;;;3.90;2.40;;;30.00;99.90;;;;;;4970708;28;20051;-75
2022/06/15 10:35:18;;;;;;;5.55;2.65;;;33.70;99.90;;;;;;4965181;28;20106;-74
2022/06/15 10:37:54;;;;;;;2.83;2.03;;;33.10;99.90;;;;;;4974733;28;20045;-75
2022/06/15 10:40:33;;;;;;;5.55;2.13;;;29.60;99.90;;;;;;4971691;28;20470;-75
2022/06/15 10:43:18;;;;;;;3.88;2.45;;;31.50;99.90;;;;;;4973492;28;20058;-75
2022/06/15 10:45:53;;;;;;;3.33;2.05;;;28.60;99.90;;;;;;4977616;28;20033;-74
2022/06/15 10:48:24;;;;;;;4.35;1.90;;;28.40;99.90;;;;;;4977171;28;20105;-74
2022/06/15 10:51:30;;;;;;;3.83;2.42;;;31.10;99.90;;;;;;4957983;28;20035;-74
2022/06/15 10:54:11;;;;;;;5.35;2.40;;;32.30;99.90;;;;;;4957190;28;20127;-75
2022/06/15 11:02:37;;;;;;;4.68;2.30;;;32.50;99.90;;;;;;4976984;28;20122;-74
2022/06/15 11:05:08;;;;;;;6.22;2.67;;;31.70;99.90;;;;;;4974559;28;20030;-74
2022/06/15 11:07:43;;;;;;;4.63;2.53;;;31.70;99.90;;;;;;4965786;28;20031;-74
2022/06/15 11:10:20;;;;;;;2.58;2.38;;;33.30;99.90;;;;;;4976703;28;20073;-74
2022/06/15 11:12:56;;;;;;;3.17;2.40;;;31.60;99.90;;;;;;4957425;28;20489;-74
2022/06/15 11:18:38;;;;;;;4.72;2.40;;;28.00;99.90;;;;;;4957718;29;20046;-74
2022/06/15 11:21:27;;;;;;;5.05;2.45;;;27.50;99.90;;;;;;4957366;28;20043;-74
2022/06/15 11:24:00;;;;;;;3.95;2.60;;;26.90;99.90;;;;;;4956422;28;20059;-74
2022/06/15 11:26:54;;;;;;;4.35;2.53;;;26.50;99.90;;;;;;4976532;28;20023;-74
2022/06/15 11:29:26;;;;;;;2.58;1.70;;;26.40;99.90;;;;;;4976805;28;20552;-75
2022/06/15 11:31:54;;;;;;;3.05;2.35;;;26.30;99.90;;;;;;4968255;28;20462;-74
2022/06/15 11:34:24;;;;;;;4.80;2.72;;;26.20;99.90;;;;;;4976389;28;20045;-74
2022/06/15 11:36:58;;;;;;;7.05;2.53;;;26.20;99.90;;;;;;4976372;28;20390;-74
2022/06/15 11:39:31;;;;;;;4.85;2.60;;;26.30;99.90;;;;;;4976613;28;20098;-74
2022/06/15 11:41:58;;;;;;;3.55;2.03;;;27.00;99.90;;;;;;4976227;28;20393;-75
2022/06/15 11:44:31;;;;;;;5.03;2.63;;;26.90;99.90;;;;;;4976113;28;20497;-75
2022/06/15 11:47:04;;;;;;;4.65;2.45;;;25.20;99.90;;;;;;4976132;28;20505;-75
2022/06/15 11:49:36;;;;;;;4.05;2.88;;;24.40;99.90;;;;;;4976055;28;20078;-75
2022/06/15 11:52:33;;;;;;;4.28;2.63;;;24.00;99.90;;;;;;4976130;28;20019;-74
2022/06/15 11:55:20;;;;;;;7.07;2.95;;;23.70;99.90;;;;;;4955900;28;20024;-75
2022/06/15 11:58:18;;;;;;;6.30;3.15;;;23.80;99.90;;;;;;4960197;28;20098;-74
2022/06/15 12:01:15;;;;;;;5.38;3.08;;;24.30;99.90;;;;;;4956529;29;20074;-74
2022/06/15 12:04:22;;;;;;;3.15;2.85;;;23.70;99.90;;;;;;4959101;28;20028;-74
2022/06/15 12:07:00;;;;;;;3.35;3.05;;;23.70;99.90;;;;;;4976030;28;20037;-74
2022/06/15 12:09:29;;;;;;;5.47;2.85;;;24.30;99.90;;;;;;4975836;28;20425;-74
2022/06/15 12:12:38;;;;;;;5.45;3.28;;;24.40;99.90;;;;;;4975753;28;20402;-74
2022/06/15 12:15:31;;;;;;;5.60;3.20;;;24.50;99.90;;;;;;4971322;28;20094;-75
2022/06/15 12:18:18;;;;;;;7.15;3.15;;;25.00;99.90;;;;;;4956506;28;20074;-73
2022/06/15 12:21:03;;;;;;;5.50;3.40;;;24.50;99.90;;;;;;4956205;28;20050;-75
2022/06/15 12:23:48;;;;;;;5.55;3.17;;;24.30;99.90;;;;;;4968330;28;20038;-74
2022/06/15 12:27:01;;;;;;;7.07;2.97;;;24.70;99.90;;;;;;4962946;28;20153;-74
2022/06/15 12:29:55;;;;;;;6.93;2.65;;;24.40;99.90;;;;;;4982886;28;20555;-74
2022/06/15 12:32:34;;;;;;;4.75;3.20;;;24.50;99.90;;;;;;4962229;28;20106;-74
2022/06/15 12:35:30;;;;;;;3.53;2.70;;;24.80;99.90;;;;;;4977737;28;20088;-74
2022/06/15 12:38:16;;;;;;;3.08;2.63;;;24.60;99.90;;;;;;4959067;28;20608;-74
2022/06/15 12:40:53;;;;;;;4.47;2.63;;;24.90;99.90;;;;;;4972269;28;20023;-74
2022/06/15 12:43:28;;;;;;;3.75;2.70;;;24.70;99.90;;;;;;4980383;28;20027;-74
2022/06/15 12:46:04;;;;;;;5.82;2.47;;;24.50;99.90;;;;;;4982245;28;20470;-74
2022/06/15 12:49:11;;;;;;;5.68;3.28;;;24.00;99.90;;;;;;4967423;28;20078;-74
2022/06/15 12:51:46;;;;;;;6.72;3.30;;;23.90;99.90;;;;;;4967697;28;20049;-75
2022/06/15 12:54:24;;;;;;;4.63;3.58;;;24.40;99.90;;;;;;4974922;28;20516;-74
2022/06/15 12:57:16;;;;;;;3.53;3.15;;;24.30;99.90;;;;;;4979237;28;20034;-75
2022/06/15 12:59:58;;;;;;;3.15;2.63;;;25.00;99.90;;;;;;4980697;28;20079;-75
2022/06/15 13:02:34;;;;;;;4.35;2.53;;;24.50;99.90;;;;;;4972098;28;20038;-74
2022/06/15 13:05:03;;;;;;;3.58;2.97;;;24.90;99.90;;;;;;4980499;28;20077;-75
2022/06/15 13:07:32;;;;;;;3.05;2.70;;;23.90;99.90;;;;;;4986602;28;20027;-74
2022/06/15 13:10:07;;;;;;;3.28;2.60;;;24.30;99.90;;;;;;4968914;28;20021;-74
2022/06/15 13:12:34;;;;;;;5.15;2.78;;;24.70;99.90;;;;;;4972887;28;20030;-74
2022/06/15 13:15:01;;;;;;;2.88;1.85;;;24.40;99.90;;;;;;4969724;28;20023;-75
2022/06/15 13:18:05;;;;;;;4.78;2.70;;;24.30;99.90;;;;;;4963311;28;20639;-74
2022/06/15 13:20:31;;;;;;;3.22;2.63;;;24.00;99.90;;;;;;4971817;28;20030;-75
2022/06/15 13:22:57;;;;;;;3.55;2.58;;;23.90;99.90;;;;;;4974236;28;20031;-75
2022/06/15 13:25:22;;;;;;;3.45;2.30;;;23.70;99.90;;;;;;4973384;28;20051;-74
2022/06/15 13:28:08;;;;;;;3.17;2.60;;;23.80;99.90;;;;;;4974367;28;20030;-75
2022/06/15 13:30:54;;;;;;;4.25;1.65;;;23.40;99.90;;;;;;4974335;28;20422;-75
2022/06/15 13:33:20;;;;;;;3.85;1.90;;;23.20;99.90;;;;;;4974610;28;20030;-75
2022/06/15 13:36:25;;;;;;;3.88;2.33;;;23.10;99.90;;;;;;4974108;28;20033;-75
2022/06/15 13:38:51;;;;;;;4.05;2.33;;;23.10;99.90;;;;;;4973923;28;20042;-74
2022/06/15 13:41:20;;;;;;;6.78;2.55;;;23.10;99.90;;;;;;4979021;28;20481;-75
2022/06/15 13:43:51;;;;;;;2.53;2.30;;;23.00;99.90;;;;;;4982375;28;20033;-75
2022/06/15 13:46:29;;;;;;;4.20;2.55;;;23.00;99.90;;;;;;4973508;28;20035;-74
2022/06/15 13:49:01;;;;;;;4.32;2.55;;;23.30;99.90;;;;;;4961966;28;20035;-75
2022/06/15 13:51:43;;;;;;;4.03;2.80;;;22.70;99.90;;;;;;4954568;28;20050;-75
2022/06/15 13:54:45;;;;;;;4.35;2.42;;;23.10;99.90;;;;;;4954706;28;20711;-74
2022/06/15 13:57:31;;;;;;;3.97;2.65;;;23.10;99.90;;;;;;4954829;28;20032;-75
2022/06/15 14:00:19;;;;;;;3.50;1.92;;;22.90;99.90;;;;;;4965174;28;20053;-75
2022/06/15 14:02:54;;;;;;;4.82;2.50;;;22.70;99.90;;;;;;4954576;28;20074;-74
2022/06/15 14:05:28;;;;;;;2.40;2.08;;;22.60;99.90;;;;;;4954841;28;20038;-75
2022/06/15 14:08:34;;;;;;;6.45;2.90;;;22.60;99.90;;;;;;4962970;28;20029;-75
2022/06/15 14:11:19;;;;;;;4.60;3.20;;;22.30;99.90;;;;;;4951647;29;20604;-75
2022/06/15 14:14:18;;;;;;;4.22;2.95;;;22.00;99.90;;;;;;4952664;28;20458;-75
2022/06/15 14:16:55;;;;;;;6.05;2.13;;;22.70;99.90;;;;;;4962685;28;20020;-74
2022/06/15 14:19:39;;;;;;;3.03;2.30;;;22.70;99.90;;;;;;4970175;28;20115;-75
2022/06/15 14:22:23;;;;;;;4.65;2.58;;;22.60;99.90;;;;;;4973381;28;20110;-75
2022/06/15 14:25:07;;;;;;;3.42;2.60;;;22.60;99.90;;;;;;4972154;28;20043;-74
2022/06/15 14:27:35;;;;;;;4.75;2.63;;;22.80;99.90;;;;;;4954721;28;20023;-75
2022/06/15 14:30:16;;;;;;;4.00;2.35;;;23.00;99.90;;;;;;4973456;28;20482;-75
2022/06/15 14:32:41;;;;;;;3.75;2.30;;;22.90;99.90;;;;;;4973403;28;20033;-75
2022/06/15 14:35:17;;;;;;;3.58;2.33;;;22.70;99.90;;;;;;4983372;28;20014;-74
2022/06/15 14:37:43;;;;;;;3.50;2.00;;;22.60;99.90;;;;;;4987970;28;20053;-75